Time;durP1;ratioP1;P1;durP2;ratioP2;P2;SDS_P1;SDS_P2;PMS_P1;PMS_P2;Temp;Humidity;BMP_temperature;BMP_pressure;BME280_temperature;BME280_humidity;BME280_pressure;Samples;Min_cycle;Max_cycle;Signal;HPM_P1;HPM_P2
2022/05/11 00:00:16;;;;;;;17.00;3.90;;;13.90;99.90;;;;;;4785858;30;20116;-62
2022/05/11 00:02:42;;;;;;;7.88;3.90;;;;;;;;;;4785988;30;20428;-62
2022/05/11 00:05:12;;;;;;;6.40;3.60;;;13.70;99.90;;;;;;4785995;30;20051;-62
2022/05/11 00:07:38;;;;;;;7.40;3.97;;;13.90;99.90;;;;;;4770292;30;20063;-62
2022/05/11 00:10:11;;;;;;;14.70;4.20;;;13.80;99.90;;;;;;4785993;30;20393;-62
2022/05/11 00:12:42;;;;;;;11.90;4.65;;;14.10;99.90;;;;;;4788460;30;20087;-62
2022/05/11 00:15:12;;;;;;;10.23;4.25;;;13.90;99.90;;;;;;4789427;30;20047;-62
2022/05/11 00:17:38;;;;;;;9.63;3.90;;;14.10;99.90;;;;;;4789919;30;20162;-62
2022/05/11 00:20:06;;;;;;;11.25;3.80;;;14.20;99.90;;;;;;4789105;30;20569;-62
2022/05/11 00:22:33;;;;;;;8.93;3.78;;;14.20;99.90;;;;;;4773131;30;20083;-62
2022/05/11 00:24:59;;;;;;;9.02;3.85;;;;;;;;;;4788914;30;20126;-62
2022/05/11 00:27:25;;;;;;;8.63;4.10;;;;;;;;;;4788908;30;20066;-62
2022/05/11 00:29:51;;;;;;;8.45;4.05;;;14.00;99.90;;;;;;4789131;30;20518;-62
2022/05/11 00:32:17;;;;;;;8.38;3.90;;;14.10;99.90;;;;;;4788819;30;20047;-62
2022/05/11 00:34:42;;;;;;;8.27;4.07;;;13.80;99.90;;;;;;4788877;30;20134;-62
2022/05/11 00:37:11;;;;;;;7.47;4.00;;;14.00;99.90;;;;;;4788702;30;20134;-62
2022/05/11 00:39:37;;;;;;;7.40;4.13;;;;;;;;;;4789077;30;20142;-62
2022/05/11 00:42:05;;;;;;;8.05;4.00;;;14.20;99.90;;;;;;4788745;30;20054;-62
2022/05/11 00:44:32;;;;;;;8.85;3.88;;;14.30;99.90;;;;;;4789034;30;20076;-62
2022/05/11 00:47:04;;;;;;;8.30;4.00;;;13.90;99.90;;;;;;4772355;30;20118;-62
2022/05/11 00:49:43;;;;;;;6.63;3.85;;;14.40;99.90;;;;;;4757826;30;20087;-62
2022/05/11 00:52:29;;;;;;;10.10;3.78;;;14.00;99.90;;;;;;4788506;30;20536;-62
2022/05/11 00:54:59;;;;;;;9.02;3.95;;;14.00;99.90;;;;;;4772318;30;20048;-62
2022/05/11 00:57:48;;;;;;;9.80;4.20;;;14.20;99.90;;;;;;4788466;30;20059;-62
2022/05/11 01:03:10;;;;;;;9.43;4.25;;;14.10;99.90;;;;;;4728145;24;20063;-84
2022/05/11 01:05:36;;;;;;;11.50;4.35;;;;;;;;;;4775575;30;20083;-83
2022/05/11 01:08:03;;;;;;;7.90;4.38;;;;;;;;;;4773959;30;20082;-84
2022/05/11 01:10:32;;;;;;;8.55;4.40;;;14.00;99.90;;;;;;4772605;30;20106;-83
2022/05/11 01:13:01;;;;;;;10.20;4.80;;;14.00;99.90;;;;;;4773918;30;20079;-86
2022/05/11 01:15:33;;;;;;;10.95;4.47;;;14.00;99.90;;;;;;4786604;30;20086;-83
2022/05/11 01:18:02;;;;;;;9.10;4.57;;;14.00;99.90;;;;;;4787937;30;20496;-84
2022/05/11 01:20:33;;;;;;;9.48;4.35;;;14.00;99.90;;;;;;4780015;30;20457;-86
2022/05/11 01:23:08;;;;;;;9.90;4.70;;;;;;;;;;4794793;29;20055;-86
2022/05/11 01:25:34;;;;;;;10.60;4.38;;;;;;;;;;4792386;30;20511;-85
2022/05/11 01:28:11;;;;;;;10.48;4.57;;;14.00;99.90;;;;;;4778647;30;20473;-85
2022/05/11 01:30:44;;;;;;;12.25;4.50;;;14.00;99.90;;;;;;4793711;30;20392;-85
2022/05/11 01:33:17;;;;;;;9.55;4.55;;;14.00;99.90;;;;;;4777026;30;20122;-85
2022/05/11 01:36:23;;;;;;;11.90;4.95;;;14.00;99.90;;;;;;4764427;30;20418;-85
2022/05/11 01:38:52;;;;;;;9.15;4.50;;;14.00;99.90;;;;;;4784646;30;20081;-85
2022/05/11 01:41:26;;;;;;;10.68;4.80;;;14.00;99.90;;;;;;4800159;30;20082;-85
2022/05/11 01:43:53;;;;;;;7.70;4.50;;;;;;;;;;4784909;30;20055;-86
2022/05/11 01:46:19;;;;;;;9.68;4.60;;;;;;;;;;4777723;30;20521;-85
2022/05/11 01:48:49;;;;;;;11.88;4.97;;;;;;;;;;4776416;30;20058;-85
2022/05/11 01:51:20;;;;;;;9.45;4.72;;;14.00;99.90;;;;;;4793411;30;20047;-85
2022/05/11 01:53:52;;;;;;;9.57;5.15;;;14.00;99.90;;;;;;4778153;30;20116;-86
2022/05/11 01:56:32;;;;;;;10.85;5.20;;;14.00;99.90;;;;;;4800857;30;20055;-86
2022/05/11 01:59:04;;;;;;;9.30;5.30;;;;;;;;;;4784579;30;20112;-86
2022/05/11 02:01:42;;;;;;;11.35;5.78;;;13.90;99.90;;;;;;4798746;30;20051;-86
2022/05/11 02:10:04;;;;;;;10.73;5.70;;;;;;;;;;4744462;30;20406;-86
2022/05/11 02:12:46;;;;;;;9.70;6.18;;;14.10;99.90;;;;;;4729731;30;20053;-86
2022/05/11 02:15:13;;;;;;;11.45;6.00;;;;;;;;;;4729758;30;20064;-85
2022/05/11 02:17:40;;;;;;;10.30;5.80;;;;;;;;;;4729950;30;20096;-86
2022/05/11 02:20:16;;;;;;;12.48;5.70;;;14.00;99.90;;;;;;4743519;30;20064;-85
2022/05/11 02:22:46;;;;;;;11.63;5.80;;;14.10;99.90;;;;;;4713289;30;20110;-84
2022/05/11 02:25:22;;;;;;;13.45;6.40;;;;;;;;;;4743141;30;20067;-85
2022/05/11 02:27:49;;;;;;;10.45;5.68;;;14.10;99.90;;;;;;4742727;30;20516;-85
2022/05/11 02:30:31;;;;;;;10.13;5.72;;;14.00;99.90;;;;;;4728089;30;20126;-86
2022/05/11 02:33:00;;;;;;;10.30;5.53;;;;;;;;;;4729151;30;20061;-86
2022/05/11 02:35:26;;;;;;;10.93;5.30;;;;;;;;;;4728252;30;20151;-85
2022/05/11 02:38:05;;;;;;;9.23;4.93;;;14.10;99.90;;;;;;4714652;30;20068;-86
2022/05/11 02:40:34;;;;;;;9.15;4.38;;;14.10;99.90;;;;;;4725941;30;20063;-85
2022/05/11 02:43:03;;;;;;;8.40;4.30;;;;;;;;;;4768967;30;20331;-85
2022/05/11 02:45:34;;;;;;;10.77;4.50;;;14.10;99.90;;;;;;4798571;30;20407;-86
2022/05/11 02:48:03;;;;;;;9.13;4.22;;;14.10;99.90;;;;;;4782761;30;20070;-85
2022/05/11 02:50:52;;;;;;;8.52;4.30;;;14.10;99.90;;;;;;4780753;30;20070;-85
2022/05/11 02:53:23;;;;;;;7.00;4.15;;;14.00;99.90;;;;;;4783078;30;20062;-86
2022/05/11 02:55:53;;;;;;;8.43;4.00;;;14.10;99.90;;;;;;4798143;30;20491;-85
2022/05/11 02:58:24;;;;;;;10.20;4.35;;;14.00;99.90;;;;;;4794223;30;20063;-85
2022/05/11 03:00:53;;;;;;;8.15;4.18;;;14.10;99.90;;;;;;4775924;30;20078;-85
2022/05/11 03:03:20;;;;;;;8.80;4.38;;;14.10;99.90;;;;;;4759707;30;20404;-85
2022/05/11 03:05:47;;;;;;;7.47;4.10;;;14.00;99.90;;;;;;4790345;30;20055;-85
2022/05/11 03:08:13;;;;;;;10.35;3.72;;;;;;;;;;4773962;30;20120;-85
2022/05/11 03:10:40;;;;;;;7.20;3.60;;;14.10;99.90;;;;;;4758997;30;20086;-84
2022/05/11 03:13:06;;;;;;;7.50;4.25;;;;;;;;;;4789751;30;20047;-85
2022/05/11 03:15:33;;;;;;;8.38;4.07;;;14.10;99.90;;;;;;4791818;30;20062;-85
2022/05/11 03:18:01;;;;;;;7.60;3.80;;;14.10;99.90;;;;;;4779335;30;20058;-85
2022/05/11 03:20:27;;;;;;;9.80;4.07;;;;;;;;;;4778283;30;20124;-85
2022/05/11 03:22:57;;;;;;;8.45;3.75;;;;;;;;;;4777297;30;20066;-85
2022/05/11 03:25:23;;;;;;;8.88;3.95;;;;;;;;;;4762670;30;20070;-85
2022/05/11 03:27:50;;;;;;;7.22;3.70;;;;;;;;;;4776289;30;20049;-85
2022/05/11 03:30:16;;;;;;;9.23;3.67;;;;;;;;;;4774808;30;20491;-86
2022/05/11 03:35:29;;;;;;;7.68;3.78;;;;;;;;;;4790748;30;20051;-85
2022/05/11 03:37:55;;;;;;;8.82;4.05;;;;;;;;;;4775693;30;20067;-85
2022/05/11 03:40:21;;;;;;;8.57;3.85;;;;;;;;;;4790916;30;20066;-85
2022/05/11 03:42:47;;;;;;;8.82;3.80;;;;;;;;;;4774154;30;20085;-85
2022/05/11 03:45:20;;;;;;;9.23;3.78;;;14.10;99.90;;;;;;4774866;30;20059;-85
2022/05/11 03:47:52;;;;;;;9.80;4.35;;;;;;;;;;4780750;30;20055;-85
2022/05/11 03:50:22;;;;;;;10.35;4.03;;;14.10;99.90;;;;;;4796716;30;20517;-85
2022/05/11 03:52:52;;;;;;;9.13;3.95;;;14.10;99.90;;;;;;4766529;30;20051;-85
2022/05/11 03:55:24;;;;;;;8.40;3.95;;;14.10;99.90;;;;;;4763609;30;20116;-86
2022/05/11 03:57:50;;;;;;;8.40;3.97;;;;;;;;;;4764154;30;20069;-86
2022/05/11 04:00:22;;;;;;;9.20;4.05;;;14.10;99.90;;;;;;4763479;30;20138;-85
2022/05/11 04:03:00;;;;;;;9.35;4.50;;;14.10;99.90;;;;;;4778283;30;20055;-85
2022/05/11 04:05:27;;;;;;;9.23;4.72;;;;;;;;;;4777058;30;20067;-85
2022/05/11 04:07:53;;;;;;;8.85;4.50;;;;;;;;;;4777336;30;20063;-86
2022/05/11 04:10:28;;;;;;;9.73;4.40;;;;;;;;;;4794807;30;20058;-86
2022/05/11 04:12:54;;;;;;;10.70;4.57;;;;;;;;;;4780516;30;20067;-85
2022/05/11 04:15:21;;;;;;;10.50;4.43;;;;;;;;;;4777811;30;20051;-85
2022/05/11 04:17:49;;;;;;;11.68;4.63;;;;;;;;;;4779376;30;20067;-85
2022/05/11 04:20:18;;;;;;;11.48;4.55;;;14.20;99.90;;;;;;4793742;30;20059;-86
2022/05/11 04:22:44;;;;;;;10.25;4.65;;;;;;;;;;4793196;30;20063;-85
2022/05/11 04:25:14;;;;;;;13.07;4.60;;;;;;;;;;4778224;30;20511;-85
2022/05/11 04:27:40;;;;;;;11.68;4.60;;;;;;;;;;4762678;30;20051;-85
2022/05/11 04:30:07;;;;;;;8.55;4.95;;;;;;;;;;4793978;30;20130;-85
2022/05/11 04:32:33;;;;;;;8.50;4.78;;;;;;;;;;4777030;30;20146;-86
2022/05/11 04:35:02;;;;;;;7.90;5.35;;;14.20;99.90;;;;;;4795454;30;20059;-86
2022/05/11 04:37:28;;;;;;;9.02;5.20;;;;;;;;;;4795737;30;20058;-85
2022/05/11 04:39:57;;;;;;;8.90;5.40;;;;;;;;;;4794498;30;20055;-86
2022/05/11 04:42:23;;;;;;;10.68;5.38;;;;;;;;;;4794617;30;20138;-85
2022/05/11 04:44:49;;;;;;;8.98;5.22;;;;;;;;;;4776468;30;20062;-85
2022/05/11 04:47:22;;;;;;;7.95;4.97;;;14.30;99.90;;;;;;4775936;30;20111;-86
2022/05/11 04:49:52;;;;;;;9.90;5.55;;;14.30;99.90;;;;;;4775357;30;20059;-85
2022/05/11 04:52:18;;;;;;;11.90;6.32;;;;;;;;;;4775394;30;20083;-85
2022/05/11 04:54:48;;;;;;;12.50;6.70;;;14.30;99.90;;;;;;4775659;30;20116;-85
2022/05/11 04:57:21;;;;;;;13.48;8.02;;;14.40;99.90;;;;;;4791480;29;20052;-85
2022/05/11 04:59:51;;;;;;;18.15;8.57;;;14.40;99.90;;;;;;4776327;30;20063;-85
2022/05/11 05:02:30;;;;;;;18.00;9.88;;;14.50;99.90;;;;;;4775724;30;20095;-85
2022/05/11 05:05:01;;;;;;;16.38;9.65;;;14.50;99.90;;;;;;4777136;30;20074;-85
2022/05/11 05:07:27;;;;;;;13.65;9.18;;;;;;;;;;4783774;30;20089;-85
2022/05/11 05:09:55;;;;;;;15.05;9.35;;;14.60;99.90;;;;;;4782682;30;20516;-85
2022/05/11 05:12:24;;;;;;;16.25;8.82;;;;;;;;;;4768865;30;20056;-85
2022/05/11 05:14:54;;;;;;;18.95;9.05;;;;;;;;;;4769853;30;20138;-86
2022/05/11 05:17:35;;;;;;;13.70;9.00;;;14.70;99.90;;;;;;4762821;30;20062;-85
2022/05/11 05:20:15;;;;;;;15.10;9.20;;;14.80;99.90;;;;;;4791375;30;20059;-84
2022/05/11 05:22:41;;;;;;;16.40;9.73;;;;;;;;;;4791224;30;20051;-84
2022/05/11 05:25:10;;;;;;;15.50;8.95;;;14.90;99.90;;;;;;4759796;30;20124;-84
2022/05/11 05:27:36;;;;;;;13.45;8.40;;;;;;;;;;4777294;30;20096;-84
2022/05/11 05:33:01;;;;;;;21.63;8.35;;;;;;;;;;4791293;30;20051;-83
2022/05/11 05:35:31;;;;;;;12.95;7.63;;;;;;;;;;4774699;30;20488;-83
2022/05/11 05:38:00;;;;;;;13.98;7.65;;;;;;;;;;4760007;30;20078;-83
2022/05/11 05:40:26;;;;;;;15.07;8.20;;;;;;;;;;4790749;30;20054;-82
2022/05/11 05:42:52;;;;;;;15.05;8.60;;;;;;;;;;4790701;30;20456;-84
2022/05/11 05:45:19;;;;;;;14.88;8.48;;;;;;;;;;4761357;30;20058;-80
2022/05/11 05:47:45;;;;;;;17.83;9.35;;;;;;;;;;4763292;30;20068;-84
2022/05/11 05:50:15;;;;;;;14.95;9.73;;;15.20;99.90;;;;;;4775302;30;20059;-85
2022/05/11 05:52:49;;;;;;;18.05;10.00;;;;;;;;;;4757101;30;20056;-84
2022/05/11 05:55:22;;;;;;;18.00;9.23;;;;;;;;;;4769299;30;20144;-81
2022/05/11 05:57:53;;;;;;;14.57;8.80;;;;;;;;;;4772731;30;20058;-82
2022/05/11 06:00:19;;;;;;;21.02;8.70;;;;;;;;;;4773337;30;20146;-81
2022/05/11 06:02:45;;;;;;;15.52;7.72;;;;;;;;;;4771131;29;20055;-82
2022/05/11 06:05:15;;;;;;;12.13;7.20;;;;;;;;;;4775545;30;20056;-81
2022/05/11 06:07:44;;;;;;;12.18;6.20;;;;;;;;;;4784578;30;20062;-82
2022/05/11 06:10:16;;;;;;;14.73;6.60;;;;;;;;;;4769976;30;20056;-81
2022/05/11 06:12:42;;;;;;;11.60;6.13;;;;;;;;;;4769947;30;20068;-81
2022/05/11 06:15:08;;;;;;;12.10;6.10;;;;;;;;;;4771572;30;20106;-81
2022/05/11 06:17:35;;;;;;;10.00;5.72;;;15.80;99.90;;;;;;4771420;30;20060;-83
2022/05/11 06:20:01;;;;;;;12.15;6.00;;;;;;;;;;4770848;30;20056;-81
2022/05/11 06:22:27;;;;;;;14.20;5.88;;;;;;;;;;4755256;30;20109;-81
2022/05/11 06:24:54;;;;;;;17.40;5.32;;;;;;;;;;4755064;30;20089;-81
2022/05/11 06:27:23;;;;;;;11.93;5.50;;;16.20;99.90;;;;;;4771091;30;20147;-80
2022/05/11 06:29:54;;;;;;;12.32;5.68;;;16.30;99.90;;;;;;4768483;30;20056;-81
2022/05/11 06:32:22;;;;;;;13.95;5.03;;;;;;;;;;4770745;30;20055;-80
2022/05/11 06:34:49;;;;;;;21.02;5.03;;;16.60;99.90;;;;;;4769521;30;20047;-81
2022/05/11 06:37:15;;;;;;;12.10;4.50;;;;;;;;;;4771387;30;20102;-81
2022/05/11 06:39:41;;;;;;;14.13;4.13;;;;;;;;;;4770976;30;20060;-82
2022/05/11 06:42:09;;;;;;;9.52;4.40;;;16.90;99.90;;;;;;4770025;30;20083;-82
2022/05/11 06:44:35;;;;;;;10.88;4.13;;;;;;;;;;4769765;30;20142;-81
2022/05/11 06:47:24;;;;;;;9.57;3.97;;;17.20;99.90;;;;;;4754611;30;20063;-82
2022/05/11 06:49:58;;;;;;;9.05;4.03;;;17.70;99.90;;;;;;4753713;30;20071;-81
2022/05/11 06:52:30;;;;;;;9.63;3.95;;;18.00;99.90;;;;;;4752368;30;20059;-81
2022/05/11 07:00:34;;;;;;;11.13;4.03;;;;;;;;;;4753362;30;20064;-80
2022/05/11 07:03:00;;;;;;;14.02;3.80;;;;;;;;;;4752959;30;20139;-80
2022/05/11 07:05:28;;;;;;;12.23;3.50;;;20.70;90.80;;;;;;4753535;30;20095;-81
2022/05/11 07:07:54;;;;;;;12.55;3.42;;;;;;;;;;4760082;30;20056;-80
2022/05/11 07:10:24;;;;;;;11.90;3.47;;;;;;;;;;4776304;30;20453;-80
2022/05/11 07:12:50;;;;;;;9.63;3.80;;;;;;;;;;4764922;30;20190;-80
2022/05/11 07:15:18;;;;;;;11.65;3.58;;;23.40;66.40;;;;;;4760282;30;20067;-80
2022/05/11 07:17:52;;;;;;;10.52;3.05;;;23.60;63.80;;;;;;4765513;30;20063;-81
2022/05/11 07:20:26;;;;;;;11.23;3.05;;;24.00;61.90;;;;;;4763560;30;20057;-81
2022/05/11 07:22:52;;;;;;;16.83;3.25;;;;;;;;;;4765480;30;20156;-81
2022/05/11 07:25:21;;;;;;;17.00;3.03;;;23.40;63.00;;;;;;4758585;30;20060;-81
2022/05/11 07:27:52;;;;;;;9.15;3.05;;;23.20;62.60;;;;;;4747865;30;20552;-81
2022/05/11 07:30:23;;;;;;;13.38;2.80;;;23.30;62.90;;;;;;4756491;30;20393;-81
2022/05/11 07:32:49;;;;;;;11.38;2.90;;;;;;;;;;4756861;30;20056;-79
2022/05/11 07:35:15;;;;;;;12.93;2.75;;;;;;;;;;4754941;30;20133;-80
2022/05/11 07:37:41;;;;;;;12.48;2.90;;;;;;;;;;4767682;30;20356;-80
2022/05/11 07:40:08;;;;;;;9.93;2.47;;;23.40;62.30;;;;;;4756900;30;20076;-80
2022/05/11 07:42:35;;;;;;;15.63;2.97;;;;;;;;;;4756192;30;20082;-80
2022/05/11 07:45:01;;;;;;;10.50;3.40;;;;;;;;;;4761056;30;20090;-80
2022/05/11 07:47:27;;;;;;;11.43;2.55;;;;;;;;;;4772594;30;20059;-80
2022/05/11 07:49:53;;;;;;;8.95;2.47;;;;;;;;;;4774819;30;20416;-80
2022/05/11 07:52:19;;;;;;;6.18;2.28;;;;;;;;;;4773199;30;20164;-80
2022/05/11 07:54:45;;;;;;;14.05;2.90;;;;;;;;;;4768207;30;20193;-80
2022/05/11 08:00:10;;;;;;;8.18;2.33;;;21.70;64.20;;;;;;4761684;30;20441;-81
2022/05/11 08:02:39;;;;;;;8.02;2.45;;;21.50;65.30;;;;;;4768000;30;20055;-82
2022/05/11 08:05:09;;;;;;;12.80;2.85;;;21.30;65.40;;;;;;4779687;30;20081;-80
2022/05/11 08:07:44;;;;;;;8.35;2.10;;;21.20;82.60;;;;;;4769897;30;20074;-80
2022/05/11 08:10:17;;;;;;;8.82;2.05;;;21.00;66.30;;;;;;4773540;30;20116;-80
2022/05/11 08:12:43;;;;;;;7.05;2.10;;;;;;;;;;4779239;30;20055;-82
2022/05/11 08:15:12;;;;;;;8.75;2.05;;;20.80;84.00;;;;;;4769508;30;20063;-80
2022/05/11 08:17:38;;;;;;;6.18;2.28;;;;;;;;;;4760636;30;20508;-82
2022/05/11 08:20:09;;;;;;;10.57;1.90;;;20.70;85.10;;;;;;4762222;30;20144;-80
2022/05/11 08:22:35;;;;;;;6.25;1.90;;;;;;;;;;4760256;30;20063;-80
2022/05/11 08:25:01;;;;;;;5.50;2.00;;;;;;;;;;4760595;30;20051;-80
2022/05/11 08:27:28;;;;;;;7.32;2.00;;;20.70;66.00;;;;;;4762168;30;20048;-81
2022/05/11 08:35:29;;;;;;;10.23;2.20;;;21.20;64.20;;;;;;4765082;30;20056;-80
2022/05/11 08:37:55;;;;;;;10.80;2.17;;;21.40;64.00;;;;;;4766785;30;20056;-80
2022/05/11 08:40:37;;;;;;;6.80;2.00;;;21.70;63.50;;;;;;4770171;30;20620;-80
2022/05/11 08:43:05;;;;;;;9.65;1.90;;;21.40;63.00;;;;;;4763649;30;20056;-80
2022/05/11 08:45:48;;;;;;;10.95;2.10;;;21.50;62.10;;;;;;4762924;30;20060;-80
2022/05/11 08:48:26;;;;;;;8.65;2.30;;;21.40;62.30;;;;;;4764350;30;20067;-81
2022/05/11 08:50:52;;;;;;;7.78;2.10;;;;;;;;;;4772576;30;20391;-80
2022/05/11 08:53:37;;;;;;;7.68;1.90;;;21.80;78.90;;;;;;4764283;30;20059;-80
2022/05/11 08:56:11;;;;;;;;;;;21.60;61.20;;;;;;4758457;30;20449;-80
2022/05/11 08:58:48;;;;;;;8.95;1.85;;;22.70;79.20;;;;;;4762314;30;20435;-79
2022/05/11 09:01:30;;;;;;;6.53;1.90;;;21.90;60.50;;;;;;4753723;30;20106;-80
2022/05/11 09:03:59;;;;;;;8.93;2.00;;;21.90;60.70;;;;;;4767920;30;20131;-80
2022/05/11 09:06:27;;;;;;;10.10;2.20;;;22.10;60.30;;;;;;4765581;30;20493;-80
2022/05/11 09:09:02;;;;;;;10.35;2.00;;;23.00;76.80;;;;;;4758128;30;20119;-80
2022/05/11 09:11:35;;;;;;;11.48;2.17;;;22.40;58.80;;;;;;4765849;30;20056;-79
2022/05/11 09:14:02;;;;;;;9.77;2.13;;;22.40;58.60;;;;;;4763812;30;20063;-81
2022/05/11 09:16:36;;;;;;;12.32;2.22;;;22.30;58.60;;;;;;4766794;30;20048;-80
2022/05/11 09:19:17;;;;;;;9.45;2.08;;;22.50;59.70;;;;;;4765705;30;20146;-81
2022/05/11 09:22:05;;;;;;;9.13;2.20;;;22.40;57.60;;;;;;4763689;30;20060;-81
2022/05/11 09:24:36;;;;;;;6.55;1.67;;;22.40;57.60;;;;;;4749091;30;20153;-80
2022/05/11 09:27:20;;;;;;;17.88;2.20;;;22.40;66.60;;;;;;4769899;30;20067;-80
2022/05/11 09:29:46;;;;;;;15.10;2.65;;;;;;;;;;4765577;30;20383;-82
2022/05/11 09:32:22;;;;;;;18.00;2.28;;;22.10;72.70;;;;;;4762574;30;20095;-80
2022/05/11 09:34:48;;;;;;;12.23;2.30;;;;;;;;;;4777112;30;20063;-81
2022/05/11 09:37:34;;;;;;;9.02;1.95;;;21.20;58.40;;;;;;4771512;30;20052;-80
2022/05/11 09:40:08;;;;;;;;;;;22.00;58.30;;;;;;4776535;30;20411;-80
2022/05/11 09:42:34;;;;;;;16.13;2.05;;;;;;;;;;4765582;30;19930;-81
2022/05/11 09:45:01;;;;;;;11.70;2.15;;;;;;;;;;4765728;30;20396;-80
2022/05/11 09:47:34;;;;;;;6.45;1.63;;;22.00;56.30;;;;;;4765342;30;20056;-79
2022/05/11 09:50:22;;;;;;;20.42;2.38;;;22.10;71.90;;;;;;4763543;30;20059;-81
2022/05/11 09:52:49;;;;;;;6.57;1.60;;;;;;;;;;4770688;30;20060;-80
2022/05/11 09:55:24;;;;;;;12.15;1.73;;;22.10;55.40;;;;;;4765991;30;20052;-80
2022/05/11 09:57:58;;;;;;;26.92;2.55;;;22.00;71.00;;;;;;4762251;30;20107;-80
2022/05/11 10:00:33;;;;;;;11.13;2.03;;;22.10;55.10;;;;;;4769342;30;20118;-80
2022/05/11 10:03:03;;;;;;;5.53;2.00;;;22.10;54.80;;;;;;4765642;30;20060;-80
2022/05/11 10:05:39;;;;;;;12.18;1.98;;;22.00;54.90;;;;;;4762841;30;20059;-80
2022/05/11 10:08:12;;;;;;;8.20;2.10;;;22.10;55.00;;;;;;4762354;30;20090;-79
2022/05/11 10:10:47;;;;;;;7.75;2.00;;;22.20;54.60;;;;;;4772228;30;20060;-80
2022/05/11 10:13:21;;;;;;;;;;;23.10;55.20;;;;;;4767436;30;20052;-80
2022/05/11 10:22:00;;;;;;;9.07;2.17;;;21.30;68.20;;;;;;4763499;30;20101;-81
2022/05/11 10:24:56;;;;;;;13.15;1.92;;;22.40;54.50;;;;;;4766032;30;20309;-80
2022/05/11 10:27:46;;;;;;;5.55;1.67;;;23.00;69.60;;;;;;4765791;30;20056;-80
2022/05/11 10:30:47;;;;;;;13.02;2.25;;;22.50;54.10;;;;;;4768015;30;20496;-81
2022/05/11 10:33:13;;;;;;;14.32;2.35;;;;;;;;;;4776669;30;20055;-80
2022/05/11 10:35:42;;;;;;;8.13;2.10;;;22.60;53.40;;;;;;4770767;30;20071;-82
2022/05/11 10:38:38;;;;;;;11.68;2.05;;;22.60;53.30;;;;;;4769119;30;20059;-81
2022/05/11 10:41:29;;;;;;;15.63;2.15;;;22.80;67.50;;;;;;4768216;30;20075;-81
2022/05/11 10:44:14;;;;;;;11.20;2.00;;;22.70;66.80;;;;;;4770256;30;20075;-81
2022/05/11 10:46:49;;;;;;;8.00;2.10;;;22.90;52.90;;;;;;4775733;30;20056;-82
2022/05/11 10:49:33;;;;;;;5.93;1.70;;;23.00;52.80;;;;;;4771682;30;20449;-81
2022/05/11 10:52:20;;;;;;;6.97;1.80;;;23.10;52.80;;;;;;4773339;30;20131;-80
2022/05/11 10:55:25;;;;;;;19.15;2.70;;;23.20;52.20;;;;;;4758409;30;20089;-81
2022/05/11 10:57:56;;;;;;;7.95;2.20;;;23.10;52.10;;;;;;4762146;30;20105;-81
2022/05/11 11:00:24;;;;;;;5.95;2.00;;;;;;;;;;4764568;30;20064;-81
2022/05/11 11:02:50;;;;;;;12.13;2.15;;;;;;;;;;4761373;30;20098;-82
2022/05/11 11:05:31;;;;;;;8.30;1.70;;;23.20;52.20;;;;;;4767691;30;20134;-81
2022/05/11 11:08:31;;;;;;;8.13;1.92;;;23.20;52.00;;;;;;4766446;30;20049;-81
2022/05/11 11:11:24;;;;;;;11.75;1.80;;;23.20;52.10;;;;;;4774990;30;20106;-81
2022/05/11 11:13:50;;;;;;;8.48;1.80;;;;;;;;;;4756204;30;20079;-82
2022/05/11 11:16:17;;;;;;;8.90;1.98;;;;;;;;;;4775040;30;20059;-81
2022/05/11 11:18:49;;;;;;;11.85;1.90;;;23.30;51.90;;;;;;4777399;30;20516;-82
2022/05/11 11:21:17;;;;;;;5.45;1.60;;;23.20;51.80;;;;;;4777370;30;20119;-82
2022/05/11 11:23:48;;;;;;;11.20;2.00;;;23.30;52.00;;;;;;4772111;30;20056;-81
2022/05/11 11:26:46;;;;;;;8.63;2.13;;;23.20;51.50;;;;;;4770733;30;20087;-82
2022/05/11 11:29:13;;;;;;;13.68;1.98;;;;;;;;;;4765807;30;20063;-81
2022/05/11 11:31:58;;;;;;;6.15;1.75;;;23.20;64.50;;;;;;4773763;30;20060;-82
2022/05/11 11:34:27;;;;;;;6.45;2.00;;;23.60;51.60;;;;;;4780214;30;20100;-82
2022/05/11 11:36:54;;;;;;;7.43;2.05;;;;;;;;;;4772347;30;20135;-81
2022/05/11 11:39:44;;;;;;;6.97;1.80;;;23.70;51.10;;;;;;4768840;30;20092;-81
2022/05/11 11:42:10;;;;;;;13.40;2.38;;;;;;;;;;4771649;30;20064;-81
2022/05/11 11:44:46;;;;;;;7.65;1.70;;;23.90;51.30;;;;;;4770061;30;20075;-81
2022/05/11 11:47:25;;;;;;;5.43;1.80;;;23.10;62.70;;;;;;4770498;30;20500;-81
2022/05/11 11:49:52;;;;;;;11.27;2.10;;;;;;;;;;4766609;30;20056;-82
2022/05/11 11:52:44;;;;;;;12.15;2.22;;;23.90;62.60;;;;;;4773206;30;20149;-82
2022/05/11 11:55:27;;;;;;;11.70;1.90;;;24.10;50.50;;;;;;4762193;30;20056;-81
2022/05/11 11:58:13;;;;;;;10.98;1.90;;;24.30;62.50;;;;;;4769048;30;20059;-82
2022/05/11 12:00:48;;;;;;;8.85;1.98;;;24.40;62.10;;;;;;4772061;30;20059;-82
2022/05/11 12:03:19;;;;;;;14.00;1.70;;;24.20;50.10;;;;;;4767741;30;20194;-81
2022/05/11 12:05:52;;;;;;;8.10;1.73;;;24.30;61.80;;;;;;4768642;30;20056;-82
2022/05/11 12:16:56;;;;;;;9.73;1.83;;;24.50;49.70;;;;;;4779758;30;20055;-82
2022/05/11 12:19:26;;;;;;;9.18;1.70;;;24.40;49.40;;;;;;4774167;30;20090;-81
2022/05/11 12:22:12;;;;;;;7.40;1.60;;;24.60;60.70;;;;;;4782495;30;20090;-81
2022/05/11 12:24:48;;;;;;;4.28;1.55;;;24.50;49.30;;;;;;4781206;30;20083;-82
2022/05/11 12:27:32;;;;;;;7.13;1.70;;;24.70;49.20;;;;;;4776406;30;20135;-82
2022/05/11 12:30:02;;;;;;;5.75;1.63;;;24.70;49.20;;;;;;4774265;30;20047;-82
2022/05/11 12:32:35;;;;;;;6.60;1.80;;;24.70;48.80;;;;;;4777207;30;20048;-82
2022/05/11 12:35:15;;;;;;;8.60;1.75;;;24.90;60.10;;;;;;4774942;30;20052;-81
2022/05/11 12:37:41;;;;;;;5.53;1.50;;;;;;;;;;4775445;30;20056;-82
2022/05/11 12:40:08;;;;;;;9.57;1.77;;;;;;;;;;4785519;30;20090;-82
2022/05/11 12:43:05;;;;;;;8.32;1.58;;;24.90;59.40;;;;;;4772018;30;20048;-82
2022/05/11 12:45:31;;;;;;;6.47;1.80;;;;;;;;;;4769772;30;20058;-83
2022/05/11 12:47:59;;;;;;;8.20;1.85;;;;;;;;;;4788640;30;20539;-81
2022/05/11 12:50:29;;;;;;;11.80;1.92;;;24.70;51.50;;;;;;4771083;30;20060;-82
2022/05/11 12:53:19;;;;;;;10.10;1.85;;;25.20;50.70;;;;;;4771134;30;20059;-81
2022/05/11 12:55:49;;;;;;;8.65;1.60;;;25.10;48.50;;;;;;4767302;30;20064;-81
2022/05/11 12:58:17;;;;;;;8.27;1.67;;;25.20;47.80;;;;;;4769026;30;20067;-81
2022/05/11 13:00:44;;;;;;;8.38;1.70;;;;;;;;;;4770522;30;20060;-82
2022/05/11 13:03:30;;;;;;;8.05;1.67;;;25.40;57.60;;;;;;4782150;30;20112;-81
2022/05/11 13:06:07;;;;;;;9.32;1.90;;;25.30;47.10;;;;;;4778102;30;20146;-82
2022/05/11 13:08:43;;;;;;;5.57;1.55;;;25.50;47.40;;;;;;4770084;30;20052;-81
2022/05/11 13:11:12;;;;;;;9.30;1.90;;;25.50;47.10;;;;;;4767741;30;20082;-82
2022/05/11 13:13:42;;;;;;;11.82;2.10;;;25.20;46.80;;;;;;4771888;30;20063;-81
2022/05/11 13:16:15;;;;;;;7.15;2.10;;;25.00;47.10;;;;;;4766349;30;20052;-81
2022/05/11 13:18:43;;;;;;;16.98;2.10;;;25.00;47.10;;;;;;4768561;30;20060;-81
2022/05/11 13:21:10;;;;;;;21.95;2.35;;;25.10;57.20;;;;;;4760855;30;20071;-81
2022/05/11 13:23:41;;;;;;;10.02;1.83;;;25.20;46.80;;;;;;4776951;30;20070;-81
2022/05/11 13:26:35;;;;;;;13.90;2.05;;;25.00;57.60;;;;;;4769949;30;20389;-81
2022/05/11 13:29:23;;;;;;;11.48;1.80;;;25.40;56.80;;;;;;4763800;30;20496;-81
2022/05/11 13:32:08;;;;;;;8.50;1.85;;;25.10;48.20;;;;;;4761442;30;20067;-82
2022/05/11 13:34:35;;;;;;;;;;;25.30;46.90;;;;;;4768104;30;20060;-81
2022/05/11 13:37:02;;;;;;;16.55;2.05;;;25.10;46.60;;;;;;4774454;30;19951;-81
2022/05/11 13:39:39;;;;;;;7.65;2.13;;;25.10;46.80;;;;;;4766564;30;20060;-81
2022/05/11 13:42:17;;;;;;;7.22;1.90;;;25.30;54.80;;;;;;4771449;30;20070;-81
2022/05/11 13:44:49;;;;;;;15.25;2.17;;;25.30;46.70;;;;;;4768541;30;20064;-82
2022/05/11 13:50:25;;;;;;;13.57;2.42;;;25.10;57.30;;;;;;4770356;30;20051;-82
2022/05/11 13:52:56;;;;;;;12.27;2.22;;;25.50;48.10;;;;;;4766872;30;20052;-82
2022/05/11 13:55:57;;;;;;;14.70;2.13;;;25.30;46.70;;;;;;4772918;30;20056;-81
2022/05/11 13:58:31;;;;;;;12.35;2.15;;;25.40;57.30;;;;;;4763429;30;20063;-81
2022/05/11 14:01:21;;;;;;;11.13;2.28;;;25.30;51.80;;;;;;4772095;30;20082;-80
2022/05/11 14:03:52;;;;;;;16.55;2.50;;;25.10;57.70;;;;;;4761688;30;20098;-82
2022/05/11 14:06:21;;;;;;;9.15;2.08;;;25.10;47.10;;;;;;4778685;30;20079;-80
2022/05/11 14:08:47;;;;;;;13.93;2.40;;;;;;;;;;4754928;30;20091;-82
2022/05/11 14:11:14;;;;;;;11.40;2.30;;;25.20;47.70;;;;;;4774275;30;20055;-82
2022/05/11 14:13:41;;;;;;;13.35;2.70;;;;;;;;;;4775390;30;20508;-81
2022/05/11 14:16:09;;;;;;;11.35;2.30;;;25.40;47.90;;;;;;4773859;30;20087;-82
2022/05/11 14:18:39;;;;;;;19.85;2.50;;;25.20;47.60;;;;;;4775192;30;20060;-81
2022/05/11 14:21:05;;;;;;;12.48;2.42;;;;;;;;;;4785854;30;20056;-82
2022/05/11 14:23:31;;;;;;;10.68;2.30;;;;;;;;;;4767439;30;20061;-82
2022/05/11 14:25:57;;;;;;;9.23;2.55;;;;;;;;;;4787414;30;20062;-82
2022/05/11 14:28:23;;;;;;;10.75;2.42;;;25.00;58.60;;;;;;4778906;30;20087;-81
2022/05/11 14:30:48;;;;;;;15.52;2.65;;;25.60;58.90;;;;;;4778135;30;20036;-81
2022/05/11 14:33:15;;;;;;;10.30;2.58;;;24.80;48.50;;;;;;4759494;30;20124;-81